sensor_id;sensor_type;location;lat;lon;timestamp;P1;durP1;ratioP1;P2;durP2;ratioP2
68843;SDS011;55850;51.244;6.824;2022-09-16T00:02:46;0.98;;;0.50;;
68843;SDS011;55850;51.244;6.824;2022-09-16T00:07:52;2.60;;;0.80;;
68843;SDS011;55850;51.244;6.824;2022-09-16T00:12:58;1.88;;;0.60;;
68843;SDS011;55850;51.244;6.824;2022-09-16T00:18:06;4.55;;;0.77;;
68843;SDS011;55850;51.244;6.824;2022-09-16T00:23:13;1.60;;;0.50;;
68843;SDS011;55850;51.244;6.824;2022-09-16T00:28:19;2.63;;;0.50;;
68843;SDS011;55850;51.244;6.824;2022-09-16T00:33:31;4.93;;;0.38;;
68843;SDS011;55850;51.244;6.824;2022-09-16T00:38:36;2.30;;;0.57;;
68843;SDS011;55850;51.244;6.824;2022-09-16T00:43:46;4.13;;;0.60;;
68843;SDS011;55850;51.244;6.824;2022-09-16T00:48:56;1.05;;;0.57;;
68843;SDS011;55850;51.244;6.824;2022-09-16T00:54:02;2.57;;;0.40;;
68843;SDS011;55850;51.244;6.824;2022-09-16T00:59:12;1.20;;;0.32;;
68843;SDS011;55850;51.244;6.824;2022-09-16T01:04:25;2.97;;;0.50;;
68843;SDS011;55850;51.244;6.824;2022-09-16T01:09:33;1.30;;;0.37;;
68843;SDS011;55850;51.244;6.824;2022-09-16T01:14:39;1.17;;;0.50;;
68843;SDS011;55850;51.244;6.824;2022-09-16T01:25:42;1.83;;;0.40;;
68843;SDS011;55850;51.244;6.824;2022-09-16T01:31:04;1.73;;;0.60;;
68843;SDS011;55850;51.244;6.824;2022-09-16T01:41:54;3.37;;;0.40;;
68843;SDS011;55850;51.244;6.824;2022-09-16T01:47:13;2.03;;;0.50;;
68843;SDS011;55850;51.244;6.824;2022-09-16T01:52:23;1.98;;;0.52;;
68843;SDS011;55850;51.244;6.824;2022-09-16T01:57:40;2.47;;;0.60;;
68843;SDS011;55850;51.244;6.824;2022-09-16T02:02:53;2.20;;;0.47;;
68843;SDS011;55850;51.244;6.824;2022-09-16T02:08:04;1.30;;;0.70;;
68843;SDS011;55850;51.244;6.824;2022-09-16T02:13:16;2.60;;;0.60;;
68843;SDS011;55850;51.244;6.824;2022-09-16T02:18:31;2.55;;;0.60;;
68843;SDS011;55850;51.244;6.824;2022-09-16T02:23:39;6.15;;;0.75;;
68843;SDS011;55850;51.244;6.824;2022-09-16T02:28:49;1.47;;;0.60;;
68843;SDS011;55850;51.244;6.824;2022-09-16T02:34:01;1.90;;;0.70;;
68843;SDS011;55850;51.244;6.824;2022-09-16T02:39:12;1.95;;;0.80;;
68843;SDS011;55850;51.244;6.824;2022-09-16T02:44:20;6.43;;;0.90;;
68843;SDS011;55850;51.244;6.824;2022-09-16T02:49:31;1.67;;;0.70;;
68843;SDS011;55850;51.244;6.824;2022-09-16T02:54:46;3.15;;;0.52;;
68843;SDS011;55850;51.244;6.824;2022-09-16T02:59:55;1.10;;;0.60;;
68843;SDS011;55850;51.244;6.824;2022-09-16T03:05:04;1.77;;;0.67;;
68843;SDS011;55850;51.244;6.824;2022-09-16T03:10:10;4.60;;;0.68;;
68843;SDS011;55850;51.244;6.824;2022-09-16T03:20:50;1.73;;;0.60;;
68843;SDS011;55850;51.244;6.824;2022-09-16T03:26:06;2.15;;;0.80;;
68843;SDS011;55850;51.244;6.824;2022-09-16T03:31:20;4.40;;;0.90;;
68843;SDS011;55850;51.244;6.824;2022-09-16T03:36:36;2.20;;;0.80;;
68843;SDS011;55850;51.244;6.824;2022-09-16T03:41:47;3.35;;;0.95;;
68843;SDS011;55850;51.244;6.824;2022-09-16T03:46:53;2.28;;;0.80;;
68843;SDS011;55850;51.244;6.824;2022-09-16T03:52:01;2.30;;;1.40;;
68843;SDS011;55850;51.244;6.824;2022-09-16T03:57:09;3.22;;;0.98;;
68843;SDS011;55850;51.244;6.824;2022-09-16T04:02:14;3.28;;;0.90;;
68843;SDS011;55850;51.244;6.824;2022-09-16T04:07:22;4.17;;;1.10;;
68843;SDS011;55850;51.244;6.824;2022-09-16T04:12:28;3.60;;;1.13;;
68843;SDS011;55850;51.244;6.824;2022-09-16T04:17:34;5.47;;;1.23;;
68843;SDS011;55850;51.244;6.824;2022-09-16T04:22:42;2.77;;;1.20;;
68843;SDS011;55850;51.244;6.824;2022-09-16T04:27:47;1.92;;;1.13;;
68843;SDS011;55850;51.244;6.824;2022-09-16T04:32:53;3.72;;;1.48;;
68843;SDS011;55850;51.244;6.824;2022-09-16T04:38:01;2.93;;;1.40;;
68843;SDS011;55850;51.244;6.824;2022-09-16T04:43:07;7.20;;;1.60;;
68843;SDS011;55850;51.244;6.824;2022-09-16T04:48:12;2.88;;;1.30;;
68843;SDS011;55850;51.244;6.824;2022-09-16T04:53:22;6.32;;;1.63;;
68843;SDS011;55850;51.244;6.824;2022-09-16T04:58:28;3.53;;;1.10;;
68843;SDS011;55850;51.244;6.824;2022-09-16T05:03:33;6.35;;;1.90;;
68843;SDS011;55850;51.244;6.824;2022-09-16T05:08:41;3.90;;;1.43;;
68843;SDS011;55850;51.244;6.824;2022-09-16T05:13:47;6.53;;;1.77;;
68843;SDS011;55850;51.244;6.824;2022-09-16T05:18:54;5.72;;;1.63;;
68843;SDS011;55850;51.244;6.824;2022-09-16T05:24:04;3.97;;;1.50;;
68843;SDS011;55850;51.244;6.824;2022-09-16T05:29:12;4.57;;;1.90;;
68843;SDS011;55850;51.244;6.824;2022-09-16T05:34:20;3.05;;;1.40;;
68843;SDS011;55850;51.244;6.824;2022-09-16T05:39:32;4.90;;;1.67;;
68843;SDS011;55850;51.244;6.824;2022-09-16T05:44:37;4.97;;;1.30;;
68843;SDS011;55850;51.244;6.824;2022-09-16T05:49:42;5.78;;;1.48;;
68843;SDS011;55850;51.244;6.824;2022-09-16T05:54:51;6.40;;;1.67;;
68843;SDS011;55850;51.244;6.824;2022-09-16T05:59:56;3.70;;;1.37;;
68843;SDS011;55850;51.244;6.824;2022-09-16T06:05:02;2.17;;;1.17;;
68843;SDS011;55850;51.244;6.824;2022-09-16T06:10:10;3.50;;;1.47;;
68843;SDS011;55850;51.244;6.824;2022-09-16T06:15:16;3.70;;;1.30;;
68843;SDS011;55850;51.244;6.824;2022-09-16T06:20:22;4.13;;;1.73;;
68843;SDS011;55850;51.244;6.824;2022-09-16T06:25:30;5.07;;;1.40;;
68843;SDS011;55850;51.244;6.824;2022-09-16T06:30:35;2.97;;;1.00;;
68843;SDS011;55850;51.244;6.824;2022-09-16T06:35:41;4.03;;;1.25;;
68843;SDS011;55850;51.244;6.824;2022-09-16T06:40:49;5.47;;;1.70;;
68843;SDS011;55850;51.244;6.824;2022-09-16T06:45:56;1.60;;;0.80;;
68843;SDS011;55850;51.244;6.824;2022-09-16T06:51:03;2.78;;;0.85;;
68843;SDS011;55850;51.244;6.824;2022-09-16T06:56:13;2.43;;;0.87;;
68843;SDS011;55850;51.244;6.824;2022-09-16T07:01:21;4.17;;;1.50;;
68843;SDS011;55850;51.244;6.824;2022-09-16T07:06:28;3.30;;;1.00;;
68843;SDS011;55850;51.244;6.824;2022-09-16T07:11:56;3.47;;;0.90;;
68843;SDS011;55850;51.244;6.824;2022-09-16T07:17:03;1.67;;;0.97;;
68843;SDS011;55850;51.244;6.824;2022-09-16T07:22:10;5.55;;;1.15;;
68843;SDS011;55850;51.244;6.824;2022-09-16T07:27:18;3.00;;;1.10;;
68843;SDS011;55850;51.244;6.824;2022-09-16T07:32:23;5.43;;;1.27;;
68843;SDS011;55850;51.244;6.824;2022-09-16T07:37:29;2.78;;;1.27;;
68843;SDS011;55850;51.244;6.824;2022-09-16T07:42:45;5.70;;;1.20;;
68843;SDS011;55850;51.244;6.824;2022-09-16T07:47:51;2.00;;;1.20;;
68843;SDS011;55850;51.244;6.824;2022-09-16T07:52:57;3.17;;;1.00;;
68843;SDS011;55850;51.244;6.824;2022-09-16T07:58:05;4.45;;;1.30;;
68843;SDS011;55850;51.244;6.824;2022-09-16T08:03:11;4.83;;;1.50;;
68843;SDS011;55850;51.244;6.824;2022-09-16T08:08:16;5.82;;;1.10;;
68843;SDS011;55850;51.244;6.824;2022-09-16T08:13:24;3.65;;;1.02;;
68843;SDS011;55850;51.244;6.824;2022-09-16T08:18:32;2.97;;;1.10;;
68843;SDS011;55850;51.244;6.824;2022-09-16T08:23:38;1.97;;;0.70;;
68843;SDS011;55850;51.244;6.824;2022-09-16T08:28:47;2.78;;;0.75;;
68843;SDS011;55850;51.244;6.824;2022-09-16T08:34:11;3.28;;;0.80;;
68843;SDS011;55850;51.244;6.824;2022-09-16T08:39:17;5.43;;;0.97;;
68843;SDS011;55850;51.244;6.824;2022-09-16T08:44:28;2.80;;;0.73;;
68843;SDS011;55850;51.244;6.824;2022-09-16T08:49:40;1.67;;;0.70;;
68843;SDS011;55850;51.244;6.824;2022-09-16T08:54:48;3.17;;;0.80;;
68843;SDS011;55850;51.244;6.824;2022-09-16T08:59:59;4.90;;;0.55;;
68843;SDS011;55850;51.244;6.824;2022-09-16T09:05:18;1.45;;;0.45;;
68843;SDS011;55850;51.244;6.824;2022-09-16T09:10:30;3.33;;;0.73;;
68843;SDS011;55850;51.244;6.824;2022-09-16T09:15:50;6.20;;;0.90;;
68843;SDS011;55850;51.244;6.824;2022-09-16T09:21:05;2.10;;;0.70;;
68843;SDS011;55850;51.244;6.824;2022-09-16T09:26:24;2.10;;;0.50;;
68843;SDS011;55850;51.244;6.824;2022-09-16T09:31:42;2.20;;;0.43;;
68843;SDS011;55850;51.244;6.824;2022-09-16T09:36:58;3.60;;;0.50;;
68843;SDS011;55850;51.244;6.824;2022-09-16T09:42:12;1.38;;;0.50;;
68843;SDS011;55850;51.244;6.824;2022-09-16T09:47:26;1.63;;;0.53;;
68843;SDS011;55850;51.244;6.824;2022-09-16T09:52:35;5.10;;;1.02;;
68843;SDS011;55850;51.244;6.824;2022-09-16T09:57:52;2.78;;;0.50;;
68843;SDS011;55850;51.244;6.824;2022-09-16T10:03:10;4.33;;;0.80;;
68843;SDS011;55850;51.244;6.824;2022-09-16T10:08:20;2.50;;;0.50;;
68843;SDS011;55850;51.244;6.824;2022-09-16T10:13:30;1.73;;;0.32;;
68843;SDS011;55850;51.244;6.824;2022-09-16T10:18:39;1.65;;;0.50;;
68843;SDS011;55850;51.244;6.824;2022-09-16T10:23:52;2.70;;;0.53;;
68843;SDS011;55850;51.244;6.824;2022-09-16T10:28:59;1.80;;;0.35;;
68843;SDS011;55850;51.244;6.824;2022-09-16T10:34:13;2.05;;;0.40;;
68843;SDS011;55850;51.244;6.824;2022-09-16T10:39:24;3.13;;;0.50;;
68843;SDS011;55850;51.244;6.824;2022-09-16T10:44:32;2.78;;;0.40;;
68843;SDS011;55850;51.244;6.824;2022-09-16T10:49:45;3.50;;;0.40;;
68843;SDS011;55850;51.244;6.824;2022-09-16T10:54:53;1.43;;;0.30;;
68843;SDS011;55850;51.244;6.824;2022-09-16T11:00:01;1.63;;;0.50;;
68843;SDS011;55850;51.244;6.824;2022-09-16T11:05:15;2.80;;;0.40;;
68843;SDS011;55850;51.244;6.824;2022-09-16T11:10:30;3.75;;;0.40;;
68843;SDS011;55850;51.244;6.824;2022-09-16T11:15:47;4.00;;;0.50;;
68843;SDS011;55850;51.244;6.824;2022-09-16T11:21:06;2.25;;;0.47;;
68843;SDS011;55850;51.244;6.824;2022-09-16T11:26:23;3.25;;;0.40;;
68843;SDS011;55850;51.244;6.824;2022-09-16T11:31:38;1.53;;;0.40;;
68843;SDS011;55850;51.244;6.824;2022-09-16T11:36:53;1.60;;;0.47;;
68843;SDS011;55850;51.244;6.824;2022-09-16T11:42:07;0.98;;;0.43;;
68843;SDS011;55850;51.244;6.824;2022-09-16T11:47:24;2.43;;;0.47;;
68843;SDS011;55850;51.244;6.824;2022-09-16T11:58:25;2.70;;;0.70;;
68843;SDS011;55850;51.244;6.824;2022-09-16T12:03:37;2.65;;;0.50;;
68843;SDS011;55850;51.244;6.824;2022-09-16T12:08:55;2.83;;;0.67;;
68843;SDS011;55850;51.244;6.824;2022-09-16T12:14:12;2.13;;;0.55;;
68843;SDS011;55850;51.244;6.824;2022-09-16T12:19:21;2.17;;;0.40;;
68843;SDS011;55850;51.244;6.824;2022-09-16T12:24:35;0.67;;;0.20;;
68843;SDS011;55850;51.244;6.824;2022-09-16T12:29:46;0.60;;;0.25;;
68843;SDS011;55850;51.244;6.824;2022-09-16T12:34:57;1.02;;;0.10;;
68843;SDS011;55850;51.244;6.824;2022-09-16T12:40:13;2.00;;;0.30;;
68843;SDS011;55850;51.244;6.824;2022-09-16T12:45:26;1.05;;;0.10;;
68843;SDS011;55850;51.244;6.824;2022-09-16T12:50:59;0.52;;;0.10;;
68843;SDS011;55850;51.244;6.824;2022-09-16T12:56:23;0.20;;;0.10;;
68843;SDS011;55850;51.244;6.824;2022-09-16T13:01:37;0.10;;;0.10;;
68843;SDS011;55850;51.244;6.824;2022-09-16T13:06:47;1.90;;;0.20;;
68843;SDS011;55850;51.244;6.824;2022-09-16T13:11:59;0.73;;;0.20;;
68843;SDS011;55850;51.244;6.824;2022-09-16T13:17:29;0.57;;;0.22;;
68843;SDS011;55850;51.244;6.824;2022-09-16T13:22:37;1.52;;;0.47;;
68843;SDS011;55850;51.244;6.824;2022-09-16T13:27:56;2.60;;;0.60;;
68843;SDS011;55850;51.244;6.824;2022-09-16T13:38:34;1.45;;;0.40;;
68843;SDS011;55850;51.244;6.824;2022-09-16T13:43:51;2.43;;;0.43;;
68843;SDS011;55850;51.244;6.824;2022-09-16T13:49:02;2.03;;;0.43;;
68843;SDS011;55850;51.244;6.824;2022-09-16T13:54:24;1.13;;;0.40;;
68843;SDS011;55850;51.244;6.824;2022-09-16T13:59:39;3.80;;;0.30;;
68843;SDS011;55850;51.244;6.824;2022-09-16T14:05:02;2.90;;;0.38;;
68843;SDS011;55850;51.244;6.824;2022-09-16T14:10:24;1.33;;;0.20;;
68843;SDS011;55850;51.244;6.824;2022-09-16T14:15:39;1.13;;;0.20;;
68843;SDS011;55850;51.244;6.824;2022-09-16T14:20:54;2.28;;;0.20;;
68843;SDS011;55850;51.244;6.824;2022-09-16T14:26:10;1.15;;;0.10;;
68843;SDS011;55850;51.244;6.824;2022-09-16T14:31:19;1.80;;;0.20;;
68843;SDS011;55850;51.244;6.824;2022-09-16T14:36:26;3.53;;;0.30;;
68843;SDS011;55850;51.244;6.824;2022-09-16T14:41:34;0.63;;;0.20;;
68843;SDS011;55850;51.244;6.824;2022-09-16T14:46:45;0.53;;;0.10;;
68843;SDS011;55850;51.244;6.824;2022-09-16T14:52:14;3.53;;;0.20;;
68843;SDS011;55850;51.244;6.824;2022-09-16T14:57:24;1.60;;;0.30;;
68843;SDS011;55850;51.244;6.824;2022-09-16T15:02:35;0.90;;;0.30;;
68843;SDS011;55850;51.244;6.824;2022-09-16T15:07:45;6.68;;;0.50;;
68843;SDS011;55850;51.244;6.824;2022-09-16T15:13:12;2.58;;;0.30;;
68843;SDS011;55850;51.244;6.824;2022-09-16T15:18:25;1.90;;;0.30;;
68843;SDS011;55850;51.244;6.824;2022-09-16T15:23:34;0.70;;;0.30;;
68843;SDS011;55850;51.244;6.824;2022-09-16T15:28:48;2.42;;;0.70;;
68843;SDS011;55850;51.244;6.824;2022-09-16T15:33:59;2.00;;;0.47;;
68843;SDS011;55850;51.244;6.824;2022-09-16T15:39:19;1.30;;;0.20;;
68843;SDS011;55850;51.244;6.824;2022-09-16T15:44:27;0.70;;;0.20;;
68843;SDS011;55850;51.244;6.824;2022-09-16T15:49:40;2.10;;;0.20;;
68843;SDS011;55850;51.244;6.824;2022-09-16T15:54:48;1.80;;;0.50;;
68843;SDS011;55850;51.244;6.824;2022-09-16T15:59:58;4.57;;;0.77;;
68843;SDS011;55850;51.244;6.824;2022-09-16T16:05:20;4.53;;;1.30;;
68843;SDS011;55850;51.244;6.824;2022-09-16T16:10:27;1.83;;;0.30;;
68843;SDS011;55850;51.244;6.824;2022-09-16T16:15:36;2.13;;;0.30;;
68843;SDS011;55850;51.244;6.824;2022-09-16T16:20:46;1.80;;;0.40;;
68843;SDS011;55850;51.244;6.824;2022-09-16T16:25:51;1.08;;;0.20;;
68843;SDS011;55850;51.244;6.824;2022-09-16T16:31:07;1.10;;;0.38;;
68843;SDS011;55850;51.244;6.824;2022-09-16T16:36:17;2.67;;;0.30;;
68843;SDS011;55850;51.244;6.824;2022-09-16T16:41:25;4.75;;;0.50;;
68843;SDS011;55850;51.244;6.824;2022-09-16T16:46:31;1.90;;;0.40;;
68843;SDS011;55850;51.244;6.824;2022-09-16T16:51:40;1.70;;;0.60;;
68843;SDS011;55850;51.244;6.824;2022-09-16T16:56:45;1.83;;;0.60;;
68843;SDS011;55850;51.244;6.824;2022-09-16T17:01:52;1.10;;;0.37;;
68843;SDS011;55850;51.244;6.824;2022-09-16T17:07:02;3.43;;;0.40;;
68843;SDS011;55850;51.244;6.824;2022-09-16T17:12:27;2.13;;;0.50;;
68843;SDS011;55850;51.244;6.824;2022-09-16T17:17:35;2.50;;;0.50;;
68843;SDS011;55850;51.244;6.824;2022-09-16T17:28:08;3.22;;;0.50;;
68843;SDS011;55850;51.244;6.824;2022-09-16T17:33:14;2.33;;;0.77;;
68843;SDS011;55850;51.244;6.824;2022-09-16T17:38:22;5.63;;;0.70;;
68843;SDS011;55850;51.244;6.824;2022-09-16T17:43:27;1.75;;;0.60;;
68843;SDS011;55850;51.244;6.824;2022-09-16T17:48:34;1.30;;;0.50;;
68843;SDS011;55850;51.244;6.824;2022-09-16T17:53:43;2.03;;;0.40;;
68843;SDS011;55850;51.244;6.824;2022-09-16T17:58:49;4.25;;;0.80;;
68843;SDS011;55850;51.244;6.824;2022-09-16T18:03:56;3.67;;;1.17;;
68843;SDS011;55850;51.244;6.824;2022-09-16T18:09:06;3.17;;;0.60;;
68843;SDS011;55850;51.244;6.824;2022-09-16T18:14:12;1.98;;;0.77;;
68843;SDS011;55850;51.244;6.824;2022-09-16T18:19:28;1.97;;;0.60;;
68843;SDS011;55850;51.244;6.824;2022-09-16T18:24:36;1.90;;;0.60;;
68843;SDS011;55850;51.244;6.824;2022-09-16T18:29:42;3.42;;;0.60;;
68843;SDS011;55850;51.244;6.824;2022-09-16T18:34:47;2.77;;;0.50;;
68843;SDS011;55850;51.244;6.824;2022-09-16T18:39:56;3.87;;;0.70;;
68843;SDS011;55850;51.244;6.824;2022-09-16T18:45:01;2.92;;;0.80;;
68843;SDS011;55850;51.244;6.824;2022-09-16T18:50:07;6.00;;;0.70;;
68843;SDS011;55850;51.244;6.824;2022-09-16T18:55:16;2.03;;;0.87;;
68843;SDS011;55850;51.244;6.824;2022-09-16T19:00:22;1.23;;;1.05;;
68843;SDS011;55850;51.244;6.824;2022-09-16T19:05:28;1.83;;;0.70;;
68843;SDS011;55850;51.244;6.824;2022-09-16T19:10:36;2.40;;;0.53;;
68843;SDS011;55850;51.244;6.824;2022-09-16T19:15:44;3.95;;;0.80;;
68843;SDS011;55850;51.244;6.824;2022-09-16T19:20:50;1.77;;;0.70;;
68843;SDS011;55850;51.244;6.824;2022-09-16T19:26:02;2.97;;;0.60;;
68843;SDS011;55850;51.244;6.824;2022-09-16T19:31:08;4.47;;;0.80;;
68843;SDS011;55850;51.244;6.824;2022-09-16T19:36:16;2.50;;;0.60;;
68843;SDS011;55850;51.244;6.824;2022-09-16T19:41:27;2.57;;;0.60;;
68843;SDS011;55850;51.244;6.824;2022-09-16T19:46:34;2.10;;;0.60;;
68843;SDS011;55850;51.244;6.824;2022-09-16T19:51:43;3.40;;;0.50;;
68843;SDS011;55850;51.244;6.824;2022-09-16T19:56:52;4.20;;;0.60;;
68843;SDS011;55850;51.244;6.824;2022-09-16T20:01:57;3.45;;;0.70;;
68843;SDS011;55850;51.244;6.824;2022-09-16T20:07:03;4.27;;;0.93;;
68843;SDS011;55850;51.244;6.824;2022-09-16T20:12:16;2.93;;;0.90;;
68843;SDS011;55850;51.244;6.824;2022-09-16T20:17:22;2.65;;;0.60;;
68843;SDS011;55850;51.244;6.824;2022-09-16T20:22:28;2.73;;;0.50;;
68843;SDS011;55850;51.244;6.824;2022-09-16T20:27:36;2.67;;;0.57;;
68843;SDS011;55850;51.244;6.824;2022-09-16T20:32:41;2.80;;;0.77;;
68843;SDS011;55850;51.244;6.824;2022-09-16T20:37:47;2.50;;;0.97;;
68843;SDS011;55850;51.244;6.824;2022-09-16T20:42:56;3.73;;;0.87;;
68843;SDS011;55850;51.244;6.824;2022-09-16T20:48:02;2.80;;;0.95;;
68843;SDS011;55850;51.244;6.824;2022-09-16T20:53:08;2.27;;;0.50;;
68843;SDS011;55850;51.244;6.824;2022-09-16T20:58:17;4.27;;;0.47;;
68843;SDS011;55850;51.244;6.824;2022-09-16T21:03:23;3.38;;;0.88;;
68843;SDS011;55850;51.244;6.824;2022-09-16T21:08:28;2.13;;;0.77;;
68843;SDS011;55850;51.244;6.824;2022-09-16T21:13:38;2.87;;;0.60;;
68843;SDS011;55850;51.244;6.824;2022-09-16T21:18:44;1.83;;;0.50;;
68843;SDS011;55850;51.244;6.824;2022-09-16T21:23:50;3.80;;;0.73;;
68843;SDS011;55850;51.244;6.824;2022-09-16T21:29:00;3.77;;;0.50;;
68843;SDS011;55850;51.244;6.824;2022-09-16T21:34:09;3.90;;;1.00;;
68843;SDS011;55850;51.244;6.824;2022-09-16T21:39:16;3.07;;;0.80;;
68843;SDS011;55850;51.244;6.824;2022-09-16T21:44:27;2.78;;;0.70;;
68843;SDS011;55850;51.244;6.824;2022-09-16T21:49:33;1.98;;;0.60;;
68843;SDS011;55850;51.244;6.824;2022-09-16T21:54:39;3.30;;;0.73;;
68843;SDS011;55850;51.244;6.824;2022-09-16T21:59:47;3.72;;;0.77;;
68843;SDS011;55850;51.244;6.824;2022-09-16T22:04:52;10.00;;;0.90;;
68843;SDS011;55850;51.244;6.824;2022-09-16T22:09:59;2.97;;;0.73;;
68843;SDS011;55850;51.244;6.824;2022-09-16T22:15:07;4.03;;;0.55;;
68843;SDS011;55850;51.244;6.824;2022-09-16T22:20:16;2.90;;;0.63;;
68843;SDS011;55850;51.244;6.824;2022-09-16T22:25:22;3.77;;;1.23;;
68843;SDS011;55850;51.244;6.824;2022-09-16T22:30:30;2.78;;;0.60;;
68843;SDS011;55850;51.244;6.824;2022-09-16T22:35:36;2.43;;;0.73;;
68843;SDS011;55850;51.244;6.824;2022-09-16T22:40:42;3.37;;;1.00;;
68843;SDS011;55850;51.244;6.824;2022-09-16T22:45:50;3.55;;;0.70;;
68843;SDS011;55850;51.244;6.824;2022-09-16T22:50:56;4.07;;;0.93;;
68843;SDS011;55850;51.244;6.824;2022-09-16T22:56:03;2.80;;;0.77;;
68843;SDS011;55850;51.244;6.824;2022-09-16T23:01:13;3.75;;;0.63;;
68843;SDS011;55850;51.244;6.824;2022-09-16T23:06:20;5.33;;;0.73;;
68843;SDS011;55850;51.244;6.824;2022-09-16T23:11:28;3.03;;;0.87;;
68843;SDS011;55850;51.244;6.824;2022-09-16T23:16:38;3.35;;;0.80;;
68843;SDS011;55850;51.244;6.824;2022-09-16T23:21:44;5.63;;;1.13;;
68843;SDS011;55850;51.244;6.824;2022-09-16T23:26:51;5.27;;;1.20;;
68843;SDS011;55850;51.244;6.824;2022-09-16T23:31:59;3.65;;;0.70;;
68843;SDS011;55850;51.244;6.824;2022-09-16T23:37:05;1.60;;;0.77;;
68843;SDS011;55850;51.244;6.824;2022-09-16T23:42:11;4.67;;;1.10;;
68843;SDS011;55850;51.244;6.824;2022-09-16T23:47:20;5.68;;;1.10;;
68843;SDS011;55850;51.244;6.824;2022-09-16T23:52:26;7.13;;;1.60;;
68843;SDS011;55850;51.244;6.824;2022-09-16T23:57:32;3.47;;;0.63;;
